Andrews, TX

1:47 PM CST on December 05, 2019 (GMT -0600)
Andrews

Weather History for KE11 - October, 2019

Change the Weather History Date:

Thursday, October 10, 2019

  Actual Average (KMAF) Record (KMAF)
Temperature  
Mean Temperature 71 °F -  
Max Temperature 88 °F 77 °F 94 °F (1965)
Min Temperature 52 °F 52 °F 36 °F (2000)
Cooling Degree Days 6    
Growing Degree Days 21 (Base 50)    
Moisture  
Dew Point 48 °F    
Average Humidity 46    
Maximum Humidity 78    
Minimum Humidity 14    
Precipitation  
Precipitation 0.00 in - - ()
Sea Level Pressure  
Sea Level Pressure 29.87 in    
Wind  
Wind Speed 10 mph ()    
Max Wind Speed 22 mph    
Max Gust Speed 30 mph    
Visibility 10.0 miles    
Events      
Averages and records for this station are not official NWS values.
T = Trace of Precipitation, MM = Missing Value Source: Averaged Metar Reports

Daily Weather History Graph

Daily Weather History Graph

Search for Another Location

Airport or City:

Astronomy

Oct. 10, 2019 Rise Set
Actual Time 7:50 AM CDT 7:23 PM CDT
Civil Twilight 7:25 AM CDT 7:48 PM CDT
Nautical Twilight 6:57 AM CDT 8:16 PM CDT
Astronomical Twilight 6:28 AM CDT 8:45 PM CDT
Moon 6:12 PM CDT (10/10) 4:51 AM CDT (10/10)
Length of Visible Light 12h 22m
Length of Day
11h 33m
Waxing Gibbous, 91% of the Moon is Illuminated
Oct 10
Waxing Gibbous
Oct 13
Full
Oct 21
Last Quarter
Oct 27
New
Nov 4
First Quarter

Hourly Weather History & Observations

Time (CDT) Temp. Dew Point Humidity Pressure Visibility Wind Dir Wind Speed Gust Speed Precip Events Conditions
12:15 AM 72.5 °F 57.6 °F 59% 29.83 in 10.0 mi SSW 9.2 mph - N/A   Overcast
12:35 AM 72.5 °F 58.3 °F 61% 29.83 in 10.0 mi South 9.2 mph - N/A   Mostly Cloudy
12:55 AM 72.3 °F 58.5 °F 62% 29.83 in 10.0 mi SSW 10.4 mph - N/A   Scattered Clouds
1:15 AM 71.2 °F 58.6 °F 64% 29.83 in 10.0 mi South 10.4 mph - N/A   Clear
1:55 AM 71.1 °F 59.0 °F 66% 29.83 in 10.0 mi SSW 10.4 mph - N/A   Mostly Cloudy
2:15 AM 70.3 °F 59.0 °F 67% 29.83 in 10.0 mi SSW 9.2 mph - N/A   Scattered Clouds
2:35 AM 69.8 °F 59.2 °F 69% 29.83 in 10.0 mi SSW 9.2 mph - N/A   Clear
2:55 AM 69.8 °F 59.2 °F 69% 29.83 in 10.0 mi SSW 8.1 mph - N/A   Clear
3:15 AM 69.6 °F 59.2 °F 69% 29.83 in 10.0 mi SSW 10.4 mph - N/A   Clear
3:35 AM 69.4 °F 59.2 °F 70% 29.82 in 10.0 mi SSW 9.2 mph - N/A   Clear
3:55 AM 69.1 °F 59.2 °F 71% 29.82 in 10.0 mi SSW 5.8 mph - N/A   Clear
4:15 AM 68.0 °F 59.2 °F 73% 29.82 in 10.0 mi SW 6.9 mph - N/A   Clear
4:35 AM 67.6 °F 59.0 °F 74% 29.82 in 10.0 mi SSW 8.1 mph - N/A   Clear
4:55 AM 67.3 °F 59.0 °F 75% 29.82 in 10.0 mi SSW 8.1 mph - N/A   Clear
5:15 AM 67.1 °F 59.0 °F 75% 29.83 in 10.0 mi SW 10.4 mph - N/A   Clear
5:35 AM 66.6 °F 58.6 °F 76% 29.83 in 10.0 mi SSW 9.2 mph - N/A   Clear
5:55 AM 66.2 °F 58.6 °F 77% 29.83 in 10.0 mi SSW 8.1 mph - N/A   Clear
6:15 AM 65.8 °F 58.5 °F 77% 29.84 in 10.0 mi SSW 8.1 mph - N/A   Clear
6:35 AM 65.5 °F 58.3 °F 77% 29.84 in 10.0 mi SSW 8.1 mph - N/A   Clear
6:55 AM 66.2 °F 58.1 °F 75% 29.85 in 10.0 mi SSW 11.5 mph 17.3 mph N/A   Clear
7:15 AM 65.7 °F 57.9 °F 76% 29.86 in 10.0 mi SSW 9.2 mph - N/A   Clear
7:35 AM 64.8 °F 57.7 °F 78% 29.86 in 10.0 mi SSW 9.2 mph - N/A   Clear
7:55 AM 64.6 °F 57.7 °F 78% 29.87 in 10.0 mi SSW 9.2 mph - N/A   Clear
8:15 AM 64.9 °F 57.7 °F 77% 29.87 in 10.0 mi SSW 11.5 mph - N/A   Clear
8:55 AM 68.0 °F 57.4 °F 69% 29.89 in 10.0 mi SW 8.1 mph - N/A   Clear
9:15 AM 70.0 °F 57.2 °F 64% 29.89 in 10.0 mi SW 10.4 mph - N/A   Clear
9:35 AM 72.0 °F 57.6 °F 60% 29.90 in 10.0 mi SW 8.1 mph - N/A   Clear
9:55 AM 74.5 °F 58.1 °F 57% 29.91 in 10.0 mi SW 10.4 mph - N/A   Clear
10:15 AM 76.8 °F 56.3 °F 49% 29.91 in 10.0 mi SW 10.4 mph - N/A   Clear
10:35 AM 78.3 °F 55.0 °F 45% 29.92 in 10.0 mi SW 11.5 mph 16.1 mph N/A   Clear
10:55 AM 79.3 °F 54.7 °F 42% 29.91 in 10.0 mi WSW 9.2 mph - N/A   Clear
11:15 AM 80.4 °F 52.7 °F 38% 29.91 in 10.0 mi SW 9.2 mph - N/A   Clear
11:35 AM 81.5 °F 49.5 °F 33% 29.91 in 10.0 mi WSW 9.2 mph 17.3 mph N/A   Clear
11:55 AM 82.6 °F 48.7 °F 31% 29.91 in 10.0 mi SW 13.8 mph 20.7 mph N/A   Clear
12:15 PM 83.1 °F 47.1 °F 28% 29.90 in 10.0 mi WSW 13.8 mph 20.7 mph N/A   Clear
12:35 PM 84.4 °F 44.8 °F 25% 29.89 in 10.0 mi WSW 18.4 mph 25.3 mph N/A   Clear
12:55 PM 84.9 °F 42.6 °F 23% 29.89 in 10.0 mi West 16.1 mph 25.3 mph N/A   Clear
1:15 PM 85.3 °F 42.6 °F 22% 29.88 in 10.0 mi WSW 15.0 mph 23.0 mph N/A   Clear
1:35 PM 86.0 °F 41.7 °F 21% 29.87 in 10.0 mi West 18.4 mph 24.2 mph N/A   Clear
1:50 PM 86.2 °F 41.4 °F 21% 29.86 in 10.0 mi WSW 16.1 mph 27.6 mph N/A   Clear
2:15 PM 86.7 °F 39.6 °F 19% 29.85 in 10.0 mi WSW 12.7 mph 24.2 mph N/A   Clear
2:35 PM 87.1 °F 41.9 °F 20% 29.84 in 10.0 mi West 16.1 mph 25.3 mph N/A   Clear
2:55 PM 87.3 °F 39.2 °F 18% 29.84 in 10.0 mi WSW 20.7 mph 25.3 mph N/A   Clear
3:10 PM 87.8 °F 38.7 °F 18% 29.83 in 10.0 mi WSW 18.4 mph 26.5 mph N/A   Clear
3:35 PM 88.0 °F 37.9 °F 17% 29.83 in 10.0 mi WSW 15.0 mph 26.5 mph N/A   Clear
3:55 PM 88.0 °F 36.0 °F 16% 29.82 in 10.0 mi WSW 13.8 mph 25.3 mph N/A   Clear
4:15 PM 88.0 °F 33.4 °F 14% 29.82 in 10.0 mi WSW 17.3 mph 29.9 mph N/A   Clear
4:35 PM 87.6 °F 36.3 °F 16% 29.82 in 10.0 mi WSW 18.4 mph 25.3 mph N/A   Clear
4:50 PM 87.1 °F 36.3 °F 16% 29.82 in 10.0 mi WSW 17.3 mph 25.3 mph N/A   Clear
5:15 PM 86.7 °F 34.7 °F 16% 29.83 in 10.0 mi WSW 16.1 mph 25.3 mph N/A   Clear
5:35 PM 86.2 °F 35.1 °F 16% 29.83 in 10.0 mi WSW 13.8 mph 20.7 mph N/A   Clear
5:55 PM 85.6 °F 35.6 °F 17% 29.83 in 10.0 mi WSW 9.2 mph 20.7 mph N/A   Clear
6:15 PM 85.1 °F 35.2 °F 17% 29.84 in 10.0 mi WSW 9.2 mph - N/A   Clear
6:35 PM 84.2 °F 35.8 °F 18% 29.84 in 10.0 mi West 5.8 mph 17.3 mph N/A   Clear
6:55 PM 82.8 °F 33.6 °F 17% 29.84 in 10.0 mi West 8.1 mph - N/A   Clear
7:15 PM 81.0 °F 32.9 °F 18% 29.85 in 10.0 mi West 10.4 mph 16.1 mph N/A   Clear
7:35 PM 78.3 °F 34.3 °F 20% 29.85 in 10.0 mi West 8.1 mph - N/A   Clear
7:50 PM 77.2 °F 34.9 °F 22% 29.86 in 10.0 mi West 6.9 mph - N/A   Clear
8:35 PM 75.2 °F 35.6 °F 24% 29.88 in 10.0 mi West 5.8 mph - N/A   Clear
8:55 PM 74.1 °F 36.1 °F 25% 29.89 in 10.0 mi West 4.6 mph - N/A   Clear
9:15 PM 65.8 °F 46.4 °F 49% 29.92 in 10.0 mi ENE 20.7 mph - N/A   Clear
9:30 PM 65.3 °F 47.3 °F 52% 29.94 in 10.0 mi ENE 11.5 mph 23.0 mph N/A   Clear
9:55 PM 62.8 °F 44.8 °F 52% 29.97 in 10.0 mi NE 13.8 mph 24.2 mph N/A   Clear
10:15 PM 61.7 °F 43.3 °F 51% 29.99 in 10.0 mi ENE 15.0 mph 21.9 mph N/A   Clear
10:35 PM 59.9 °F 41.7 °F 51% 30.01 in 10.0 mi NE 15.0 mph 20.7 mph N/A   Clear
10:55 PM 58.3 °F 39.9 °F 50% 30.02 in 10.0 mi NE 15.0 mph 19.6 mph N/A   Clear
11:15 PM 56.5 °F 38.1 °F 50% 30.03 in 10.0 mi NE 21.9 mph 28.8 mph N/A   Clear
11:35 PM 54.7 °F 36.5 °F 50% 30.05 in 10.0 mi NE 20.7 mph 27.6 mph N/A   Clear
11:55 PM 52.3 °F 35.2 °F 52% 30.07 in 10.0 mi NE 21.9 mph 27.6 mph N/A   Clear